Serrita, Brazil
Current Conditions -  °F | °C
As of 5:00 PM on Monday 26 Jan 2015 (Local Time) from SBJU Reporting Station
Few Clouds Few Clouds  
Wind Chill: 93°   Ceiling: Unl
Heat Index: 95°   Visibility: 6mi
Dew Point: 64°   Wind: 3mph
Humidity: 38%   Direction: 340°NNW
Pressure: 29.94"   Gusts: NA
Location:  7.93°S, 39.3°W
Report Text: SBJU 262000Z 34003KT 9999 FEW020 34/18 Q1014
Loading
Personal Weather Stations






























Interactive Weather Map New forecast layout! Learn more

10-Day Weather Forecast

Advertisements
Track Severe Weather on mobile